Time;durP1;ratioP1;P1;durP2;ratioP2;P2;SDS_P1;SDS_P2;PMS_P1;PMS_P2;Temp;Humidity;BMP_temperature;BMP_pressure;BME280_temperature;BME280_humidity;BME280_pressure;Samples;Min_cycle;Max_cycle;Signal;HPM_P1;HPM_P2
2022/03/19 00:00:58;;;;;;;10.63;2.80;;;4.60;99.90;;;;;;5030391;28;20111;-74
2022/03/19 00:03:25;;;;;;;13.13;3.55;;;4.60;99.90;;;;;;5030128;28;20578;-74
2022/03/19 00:05:50;;;;;;;11.07;3.53;;;4.50;99.90;;;;;;5048703;28;20783;-74
2022/03/19 00:08:16;;;;;;;8.35;2.63;;;4.50;99.90;;;;;;5043744;28;20045;-74
2022/03/19 00:10:42;;;;;;;12.90;2.63;;;4.40;99.90;;;;;;5058434;28;20155;-74
2022/03/19 00:13:09;;;;;;;15.52;3.65;;;4.40;99.90;;;;;;5046900;28;20033;-74
2022/03/19 00:15:35;;;;;;;14.40;3.17;;;4.30;99.90;;;;;;5029626;28;20048;-74
2022/03/19 00:18:01;;;;;;;10.63;2.30;;;4.40;99.90;;;;;;5043266;28;20090;-74
2022/03/19 00:20:26;;;;;;;17.65;3.00;;;4.30;99.90;;;;;;5031206;28;20094;-74
2022/03/19 00:22:52;;;;;;;11.95;2.83;;;4.30;99.90;;;;;;5027039;28;20046;-74
2022/03/19 00:25:18;;;;;;;10.70;3.38;;;4.30;99.90;;;;;;5053607;28;20503;-74
2022/03/19 00:27:43;;;;;;;16.30;2.25;;;4.30;99.90;;;;;;5023656;28;20048;-74
2022/03/19 00:30:10;;;;;;;13.00;2.90;;;4.30;99.90;;;;;;5052198;28;20055;-74
2022/03/19 00:32:36;;;;;;;12.65;2.60;;;4.40;99.90;;;;;;5056331;28;20093;-74
2022/03/19 00:35:06;;;;;;;17.83;3.28;;;4.40;99.90;;;;;;5056810;28;20033;-74
2022/03/19 00:37:32;;;;;;;11.40;1.98;;;4.30;99.90;;;;;;5043667;28;20093;-74
2022/03/19 00:39:58;;;;;;;11.30;2.22;;;4.30;99.90;;;;;;5056900;28;20411;-75
2022/03/19 00:42:24;;;;;;;14.40;1.95;;;4.30;99.90;;;;;;5054420;28;20351;-74
2022/03/19 00:44:50;;;;;;;17.48;2.67;;;4.40;99.90;;;;;;5056353;28;20060;-74
2022/03/19 00:47:16;;;;;;;10.70;2.83;;;4.40;99.90;;;;;;5033794;28;20044;-74
2022/03/19 00:49:41;;;;;;;10.98;2.05;;;4.30;99.90;;;;;;5034438;28;20056;-75
2022/03/19 00:52:07;;;;;;;11.98;2.50;;;4.40;99.90;;;;;;5054236;28;20045;-74
2022/03/19 00:54:32;;;;;;;17.10;2.83;;;4.30;99.90;;;;;;5025881;28;20053;-74
2022/03/19 00:56:58;;;;;;;10.25;2.53;;;4.30;99.90;;;;;;5028252;28;20871;-74
2022/03/19 00:59:23;;;;;;;12.43;2.05;;;4.20;99.90;;;;;;5047030;28;20502;-74
2022/03/19 01:01:49;;;;;;;16.02;2.80;;;4.20;99.90;;;;;;5036640;28;20404;-74
2022/03/19 01:04:15;;;;;;;13.55;2.92;;;4.20;99.90;;;;;;5047295;28;20045;-74
2022/03/19 01:06:40;;;;;;;9.38;1.75;;;4.10;99.90;;;;;;5032325;28;20045;-73
2022/03/19 01:09:06;;;;;;;14.18;2.80;;;4.10;99.90;;;;;;5042845;28;20722;-74
2022/03/19 01:11:31;;;;;;;12.75;2.20;;;4.00;99.90;;;;;;5049573;28;20080;-74
2022/03/19 01:13:57;;;;;;;12.50;2.13;;;4.00;99.90;;;;;;5043234;28;20064;-74
2022/03/19 01:16:25;;;;;;;10.40;2.72;;;4.10;99.90;;;;;;5042284;28;20044;-74
2022/03/19 01:18:51;;;;;;;15.77;2.53;;;4.00;99.90;;;;;;5042593;28;20055;-74
2022/03/19 01:21:17;;;;;;;10.57;1.85;;;4.00;99.90;;;;;;5027554;28;20045;-74
2022/03/19 01:23:43;;;;;;;9.98;2.00;;;3.90;99.90;;;;;;5028094;28;20056;-74
2022/03/19 01:26:08;;;;;;;10.73;1.90;;;4.00;99.90;;;;;;5041963;28;20102;-74
2022/03/19 01:28:34;;;;;;;12.50;2.55;;;3.90;99.90;;;;;;5042412;28;20079;-74
2022/03/19 01:31:00;;;;;;;12.20;2.47;;;3.90;99.90;;;;;;5030398;28;20571;-74
2022/03/19 01:33:26;;;;;;;9.38;2.45;;;3.90;99.90;;;;;;5052327;28;20040;-74
2022/03/19 01:35:51;;;;;;;13.23;2.80;;;3.80;99.90;;;;;;5044006;28;20118;-74
2022/03/19 01:38:17;;;;;;;13.02;3.28;;;3.90;99.90;;;;;;5046383;28;20044;-74
2022/03/19 01:40:42;;;;;;;10.50;2.35;;;3.80;99.90;;;;;;5042320;28;20133;-74
2022/03/19 01:43:08;;;;;;;6.53;1.90;;;3.90;99.90;;;;;;5041899;28;20181;-74
2022/03/19 01:45:34;;;;;;;12.38;2.50;;;3.80;99.90;;;;;;5043654;28;20040;-74
2022/03/19 01:47:59;;;;;;;15.45;2.28;;;3.80;99.90;;;;;;5024618;28;20504;-74
2022/03/19 01:50:26;;;;;;;15.15;2.75;;;3.80;99.90;;;;;;5047827;28;20057;-74
2022/03/19 01:52:53;;;;;;;12.95;2.78;;;3.20;99.90;;;;;;5048147;28;20114;-74
2022/03/19 01:55:20;;;;;;;11.77;2.03;;;3.80;99.90;;;;;;5034040;28;20068;-74
2022/03/19 01:57:47;;;;;;;13.70;2.75;;;3.80;99.90;;;;;;5039319;28;20041;-74
2022/03/19 02:00:22;;;;;;;9.32;2.60;;;3.80;99.90;;;;;;5031134;28;20356;-74
2022/03/19 02:02:49;;;;;;;16.77;3.03;;;3.80;99.90;;;;;;5028323;28;20495;-74
2022/03/19 02:05:19;;;;;;;17.58;2.40;;;3.70;99.90;;;;;;5028246;28;20052;-74
2022/03/19 02:07:47;;;;;;;16.90;3.15;;;3.80;99.90;;;;;;5020727;28;20044;-74
2022/03/19 02:10:16;;;;;;;13.50;2.45;;;3.80;99.90;;;;;;5031934;28;20044;-74
2022/03/19 02:12:44;;;;;;;13.07;2.53;;;3.80;99.90;;;;;;5047361;28;20052;-74
2022/03/19 02:15:12;;;;;;;9.23;2.88;;;3.80;99.90;;;;;;5042139;28;20993;-74
2022/03/19 02:17:38;;;;;;;9.77;2.55;;;3.80;99.90;;;;;;5040379;28;20743;-74
2022/03/19 02:20:05;;;;;;;14.18;2.67;;;3.80;99.90;;;;;;5021649;28;20052;-74
2022/03/19 02:22:31;;;;;;;12.80;2.65;;;3.70;99.90;;;;;;5023004;28;20467;-74
2022/03/19 02:27:42;;;;;;;12.82;3.30;;;3.70;99.90;;;;;;5041210;28;20084;-74
2022/03/19 02:30:13;;;;;;;12.40;2.80;;;3.70;99.90;;;;;;5028962;28;20140;-74
2022/03/19 02:32:40;;;;;;;20.40;3.38;;;3.70;99.90;;;;;;5029757;28;20295;-74
2022/03/19 02:35:06;;;;;;;12.30;2.78;;;3.70;99.90;;;;;;5027791;28;20110;-74
2022/03/19 02:37:43;;;;;;;13.05;2.90;;;3.70;99.90;;;;;;5028024;28;20052;-74
2022/03/19 02:40:11;;;;;;;11.25;2.72;;;3.70;99.90;;;;;;5045705;28;20819;-74
2022/03/19 02:42:37;;;;;;;15.30;3.08;;;3.70;99.90;;;;;;5042024;28;20053;-74
2022/03/19 02:45:05;;;;;;;10.50;2.58;;;3.70;99.90;;;;;;5048408;28;20071;-74
2022/03/19 02:47:32;;;;;;;16.08;3.70;;;3.70;99.90;;;;;;5024921;28;20967;-74
2022/03/19 02:49:58;;;;;;;16.13;2.83;;;3.70;99.90;;;;;;5040548;28;20061;-74
2022/03/19 02:52:23;;;;;;;16.13;2.85;;;3.70;99.90;;;;;;5045459;28;20190;-74
2022/03/19 02:54:49;;;;;;;10.23;2.58;;;3.70;99.90;;;;;;5026716;28;20660;-74
2022/03/19 02:57:14;;;;;;;15.18;3.63;;;3.70;99.90;;;;;;5045238;28;20705;-74
2022/03/19 02:59:40;;;;;;;14.68;3.42;;;3.70;99.90;;;;;;5052592;28;20496;-74
2022/03/19 03:02:07;;;;;;;13.20;3.15;;;3.60;99.90;;;;;;5040709;28;20036;-74
2022/03/19 03:04:34;;;;;;;8.73;2.88;;;3.60;99.90;;;;;;5041150;28;20044;-74
2022/03/19 03:07:04;;;;;;;16.30;3.00;;;3.60;99.90;;;;;;5044867;28;20773;-74
2022/03/19 03:09:31;;;;;;;17.02;3.22;;;3.60;99.90;;;;;;5027133;28;20053;-74
2022/03/19 03:11:58;;;;;;;13.10;3.10;;;3.60;99.90;;;;;;5050311;28;20056;-74
2022/03/19 03:14:25;;;;;;;12.88;3.40;;;3.50;99.90;;;;;;5052483;28;20091;-74
2022/03/19 03:16:52;;;;;;;16.45;3.88;;;3.50;99.90;;;;;;5057808;28;20045;-74
2022/03/19 03:19:19;;;;;;;19.38;3.63;;;3.50;99.90;;;;;;5054799;28;20053;-74
2022/03/19 03:21:45;;;;;;;11.27;3.40;;;3.50;99.90;;;;;;5032603;28;20561;-74
2022/03/19 03:24:12;;;;;;;11.20;4.03;;;3.40;99.90;;;;;;5052231;28;20520;-74
2022/03/19 03:26:38;;;;;;;14.32;3.63;;;3.40;99.90;;;;;;5029292;28;20788;-74
2022/03/19 03:29:05;;;;;;;13.45;3.55;;;3.30;99.90;;;;;;5045919;28;20636;-74
2022/03/19 03:31:31;;;;;;;10.63;3.10;;;3.40;99.90;;;;;;5028378;28;20580;-74
2022/03/19 03:33:57;;;;;;;9.77;3.55;;;3.30;99.90;;;;;;5043701;28;20102;-74
2022/03/19 03:36:23;;;;;;;12.35;2.90;;;3.30;99.90;;;;;;5063303;28;20045;-74
2022/03/19 03:38:49;;;;;;;10.98;3.80;;;3.20;99.90;;;;;;5056523;28;20050;-74
2022/03/19 03:41:15;;;;;;;13.38;3.58;;;3.20;99.90;;;;;;5051503;28;20045;-74
2022/03/19 03:43:40;;;;;;;9.18;3.20;;;3.20;99.90;;;;;;5026865;28;20045;-74
2022/03/19 03:46:06;;;;;;;14.70;3.45;;;3.10;99.90;;;;;;5028658;28;20119;-74
2022/03/19 03:48:35;;;;;;;9.38;3.50;;;3.10;99.90;;;;;;5024806;28;20056;-74
2022/03/19 03:51:01;;;;;;;11.55;3.40;;;3.10;99.90;;;;;;5031096;28;20080;-74
2022/03/19 03:53:28;;;;;;;16.42;4.10;;;3.00;99.90;;;;;;5042301;28;20052;-74
2022/03/19 03:55:54;;;;;;;12.82;3.30;;;3.00;99.90;;;;;;5035661;28;20040;-74
2022/03/19 03:58:20;;;;;;;9.48;3.35;;;3.00;99.90;;;;;;5053250;28;20048;-74
2022/03/19 04:00:46;;;;;;;14.30;3.70;;;3.60;99.90;;;;;;5053582;28;20080;-74
2022/03/19 04:03:12;;;;;;;14.65;4.20;;;2.90;99.90;;;;;;5052817;28;20040;-74
2022/03/19 04:05:38;;;;;;;16.88;4.05;;;2.90;99.90;;;;;;5031972;28;20052;-74
2022/03/19 04:08:04;;;;;;;14.90;3.72;;;2.90;99.90;;;;;;5029377;28;20049;-74
2022/03/19 04:10:31;;;;;;;15.43;3.75;;;2.90;99.90;;;;;;5047931;28;20056;-74
2022/03/19 04:12:57;;;;;;;16.85;4.55;;;2.90;99.90;;;;;;5050320;28;20764;-74
2022/03/19 04:15:23;;;;;;;14.73;4.63;;;2.90;99.90;;;;;;5053051;28;20056;-74
2022/03/19 04:17:48;;;;;;;18.88;4.70;;;2.90;99.90;;;;;;5050391;28;20106;-74
2022/03/19 04:20:15;;;;;;;16.50;3.78;;;3.00;99.90;;;;;;5042108;28;20049;-74
2022/03/19 04:22:45;;;;;;;16.55;5.20;;;2.90;99.90;;;;;;5043466;28;20037;-74
2022/03/19 04:25:22;;;;;;;15.77;5.22;;;2.90;99.90;;;;;;5043221;28;20041;-74
2022/03/19 04:27:55;;;;;;;16.23;4.63;;;2.90;99.90;;;;;;5029970;28;20080;-74
2022/03/19 04:30:23;;;;;;;14.65;4.60;;;2.90;99.90;;;;;;5048240;28;20155;-74
2022/03/19 04:33:01;;;;;;;14.73;4.22;;;3.00;99.90;;;;;;5047379;28;20049;-74
2022/03/19 04:38:15;;;;;;;20.55;5.80;;;2.90;99.90;;;;;;5059494;28;20156;-74
2022/03/19 04:40:41;;;;;;;20.58;5.82;;;2.90;99.90;;;;;;5046697;28;20033;-74
2022/03/19 04:43:08;;;;;;;15.68;5.07;;;2.90;99.90;;;;;;5042691;28;20149;-74
2022/03/19 04:45:38;;;;;;;11.93;4.68;;;2.90;99.90;;;;;;5035220;28;20044;-74
2022/03/19 04:48:04;;;;;;;23.17;6.03;;;2.90;99.90;;;;;;5027601;28;20053;-74
2022/03/19 04:50:30;;;;;;;20.20;5.63;;;2.90;99.90;;;;;;5052241;28;20063;-74
2022/03/19 04:52:57;;;;;;;13.18;5.03;;;2.90;99.90;;;;;;5057050;28;20041;-74
2022/03/19 04:55:22;;;;;;;18.63;5.57;;;2.80;99.90;;;;;;5052511;28;20056;-74
2022/03/19 04:57:48;;;;;;;18.42;4.97;;;2.80;99.90;;;;;;5027414;28;20618;-74
2022/03/19 05:00:16;;;;;;;18.83;5.90;;;2.80;99.90;;;;;;5051773;28;20055;-74
2022/03/19 05:02:43;;;;;;;16.48;6.00;;;2.80;99.90;;;;;;5049863;28;20148;-74
2022/03/19 05:05:09;;;;;;;16.70;4.55;;;2.80;99.90;;;;;;5034020;28;20053;-74
2022/03/19 05:07:35;;;;;;;22.23;5.88;;;2.80;99.90;;;;;;5041803;28;20041;-74
2022/03/19 05:12:50;;;;;;;15.40;5.50;;;2.80;99.90;;;;;;5028943;28;20147;-74
2022/03/19 05:15:16;;;;;;;17.05;5.10;;;2.70;99.90;;;;;;5043496;28;20041;-74
2022/03/19 05:17:43;;;;;;;17.98;5.35;;;2.70;99.90;;;;;;5021777;28;20049;-74
2022/03/19 05:20:10;;;;;;;22.00;5.85;;;2.90;99.90;;;;;;5025434;28;20044;-74
2022/03/19 05:22:36;;;;;;;20.13;5.88;;;2.70;99.90;;;;;;5054074;28;20091;-74
2022/03/19 05:25:04;;;;;;;16.92;5.95;;;2.70;99.90;;;;;;5036728;28;20758;-74
2022/03/19 05:27:29;;;;;;;17.45;5.70;;;2.70;99.90;;;;;;5033593;28;20052;-74
2022/03/19 05:29:55;;;;;;;20.75;6.15;;;2.70;99.90;;;;;;5022228;28;20053;-74
2022/03/19 05:32:22;;;;;;;19.55;6.13;;;2.70;99.90;;;;;;5067186;28;20067;-74
2022/03/19 05:34:48;;;;;;;13.70;6.03;;;2.70;99.90;;;;;;5069412;28;20378;-74
2022/03/19 05:37:14;;;;;;;22.63;6.80;;;2.70;99.90;;;;;;5048781;28;20037;-74
2022/03/19 05:39:40;;;;;;;18.85;7.30;;;2.70;99.90;;;;;;5041390;28;20847;-74
2022/03/19 05:42:07;;;;;;;14.75;5.32;;;2.70;99.90;;;;;;5048936;28;20759;-74
2022/03/19 05:44:33;;;;;;;19.65;6.88;;;2.70;99.90;;;;;;5031659;28;20053;-74
2022/03/19 05:46:59;;;;;;;19.30;6.82;;;2.70;99.90;;;;;;5040501;28;20037;-74
2022/03/19 05:49:26;;;;;;;17.92;5.57;;;2.70;99.90;;;;;;5055911;28;20485;-74
2022/03/19 05:51:52;;;;;;;16.65;5.75;;;2.70;99.90;;;;;;5044582;28;20041;-74
2022/03/19 05:54:18;;;;;;;16.50;6.55;;;2.70;99.90;;;;;;5042568;28;20048;-74
2022/03/19 05:56:44;;;;;;;22.27;6.35;;;2.70;99.90;;;;;;5047227;28;20051;-74
2022/03/19 05:59:09;;;;;;;18.88;6.45;;;2.70;99.90;;;;;;5030463;28;20044;-74
2022/03/19 06:01:35;;;;;;;18.20;6.32;;;2.70;99.90;;;;;;5051953;28;20048;-74
2022/03/19 06:04:01;;;;;;;14.40;6.95;;;2.70;99.90;;;;;;5049564;28;20098;-74
2022/03/19 06:06:27;;;;;;;18.67;6.30;;;2.60;99.90;;;;;;5065688;28;20097;-74
2022/03/19 06:08:53;;;;;;;17.55;6.13;;;2.70;99.90;;;;;;5050701;28;20659;-74
2022/03/19 06:11:19;;;;;;;16.48;6.45;;;2.70;99.90;;;;;;5056455;28;20071;-74
2022/03/19 06:13:44;;;;;;;17.35;6.55;;;2.70;99.90;;;;;;5051721;28;20571;-74
2022/03/19 06:16:10;;;;;;;17.17;7.00;;;2.70;99.90;;;;;;5043537;28;20072;-74
2022/03/19 06:18:36;;;;;;;19.63;7.43;;;2.70;99.90;;;;;;5048118;28;20051;-74
2022/03/19 06:21:03;;;;;;;21.58;7.20;;;2.70;99.90;;;;;;5039156;28;20570;-74
2022/03/19 06:23:28;;;;;;;16.63;7.22;;;2.70;99.90;;;;;;5040460;28;20037;-75
2022/03/19 06:25:54;;;;;;;18.48;7.07;;;2.80;99.90;;;;;;5042646;28;20052;-75
2022/03/19 06:28:20;;;;;;;23.52;8.82;;;2.70;99.90;;;;;;5050585;28;20076;-74
2022/03/19 06:30:45;;;;;;;22.75;7.88;;;2.80;99.90;;;;;;5051602;28;20143;-74
2022/03/19 06:33:12;;;;;;;15.82;7.47;;;2.80;99.90;;;;;;5041086;28;20060;-74
2022/03/19 06:38:26;;;;;;;25.05;8.85;;;2.90;99.90;;;;;;5061854;28;20044;-76
2022/03/19 06:40:51;;;;;;;21.90;7.78;;;3.00;99.90;;;;;;5041597;28;20040;-76
2022/03/19 06:43:17;;;;;;;19.52;8.77;;;3.00;99.90;;;;;;5051589;28;20844;-76
2022/03/19 06:45:43;;;;;;;20.02;7.60;;;3.00;99.90;;;;;;5056895;28;20087;-76
2022/03/19 06:48:08;;;;;;;22.27;8.13;;;3.10;99.90;;;;;;5055719;28;20563;-81
2022/03/19 06:50:34;;;;;;;22.55;7.55;;;3.20;99.90;;;;;;5029766;28;20064;-79
2022/03/19 06:53:02;;;;;;;16.75;6.97;;;3.20;99.90;;;;;;5045084;28;20039;-78
2022/03/19 06:55:27;;;;;;;18.52;7.72;;;3.30;99.90;;;;;;5052923;28;20059;-75
2022/03/19 06:57:53;;;;;;;19.23;7.00;;;3.30;99.90;;;;;;5033263;28;20052;-75
2022/03/19 07:00:18;;;;;;;16.80;7.57;;;3.40;99.90;;;;;;5054510;28;20041;-78
2022/03/19 07:02:48;;;;;;;22.17;7.68;;;3.40;99.90;;;;;;5036669;28;20083;-80
2022/03/19 07:05:23;;;;;;;15.25;6.80;;;3.50;99.90;;;;;;5041208;28;20497;-79
2022/03/19 07:07:48;;;;;;;18.95;6.82;;;3.40;99.90;;;;;;5035401;28;20517;-80
2022/03/19 07:10:15;;;;;;;21.02;7.85;;;3.70;99.90;;;;;;5051478;28;20033;-77
2022/03/19 07:12:51;;;;;;;15.43;6.47;;;3.70;99.90;;;;;;5030007;28;20056;-80
2022/03/19 07:15:19;;;;;;;16.90;7.13;;;3.80;99.90;;;;;;5051212;28;20107;-79
2022/03/19 07:17:45;;;;;;;22.08;7.32;;;3.90;99.90;;;;;;5027549;28;20047;-79
2022/03/19 07:20:14;;;;;;;23.33;7.18;;;4.00;99.90;;;;;;5028135;28;20056;-79
2022/03/19 07:23:00;;;;;;;19.00;6.72;;;4.00;99.90;;;;;;5032860;28;20747;-80
2022/03/19 07:25:28;;;;;;;18.42;5.93;;;4.20;99.90;;;;;;5053079;28;20050;-79
2022/03/19 07:27:56;;;;;;;18.23;6.28;;;4.20;99.90;;;;;;5022490;28;20051;-79
2022/03/19 07:30:22;;;;;;;15.73;6.40;;;4.30;99.90;;;;;;5052237;28;20131;-79
2022/03/19 07:32:48;;;;;;;17.45;6.20;;;4.40;99.90;;;;;;5058380;28;20039;-78
2022/03/19 07:35:14;;;;;;;14.05;5.88;;;4.50;99.90;;;;;;5045788;28;20041;-78
2022/03/19 07:37:41;;;;;;;16.77;5.43;;;4.60;99.90;;;;;;5033896;28;20825;-77
2022/03/19 07:40:09;;;;;;;22.67;6.00;;;4.70;99.90;;;;;;5048744;28;20080;-79
2022/03/19 07:42:35;;;;;;;21.83;6.15;;;4.80;99.90;;;;;;5045991;28;20045;-77
2022/03/19 07:45:02;;;;;;;18.02;6.03;;;4.80;99.90;;;;;;5027808;28;20106;-77
2022/03/19 07:47:29;;;;;;;19.92;5.88;;;4.90;99.90;;;;;;5038825;28;20485;-77
2022/03/19 07:49:54;;;;;;;19.27;6.18;;;5.00;99.90;;;;;;5058774;28;20782;-78
2022/03/19 07:52:20;;;;;;;14.68;5.28;;;5.10;99.90;;;;;;5049957;28;20041;-77
2022/03/19 07:54:45;;;;;;;16.70;5.07;;;5.20;99.90;;;;;;5025275;28;20056;-78
2022/03/19 07:57:11;;;;;;;17.40;4.90;;;5.20;99.90;;;;;;5035000;28;20147;-78
2022/03/19 07:59:41;;;;;;;14.05;5.53;;;5.30;99.90;;;;;;5049690;28;20209;-78
2022/03/19 08:02:06;;;;;;;14.85;5.07;;;5.40;99.90;;;;;;5053127;28;20080;-78
2022/03/19 08:04:32;;;;;;;18.17;4.80;;;5.50;99.90;;;;;;5034787;28;20148;-78
2022/03/19 08:06:58;;;;;;;12.02;4.55;;;5.50;99.90;;;;;;5032652;28;20079;-78
2022/03/19 08:09:24;;;;;;;12.98;4.85;;;5.60;99.90;;;;;;5061124;28;20040;-78
2022/03/19 08:11:51;;;;;;;12.93;4.40;;;5.70;99.90;;;;;;5055644;28;20121;-78
2022/03/19 08:14:17;;;;;;;16.67;4.40;;;5.80;99.90;;;;;;5028715;28;20477;-78
2022/03/19 08:16:44;;;;;;;15.98;4.78;;;5.90;99.90;;;;;;5024566;28;20496;-77
2022/03/19 08:19:11;;;;;;;15.55;4.35;;;5.90;99.90;;;;;;5032708;28;20609;-77
2022/03/19 08:21:38;;;;;;;12.80;3.95;;;6.00;99.90;;;;;;5038357;28;20127;-77
2022/03/19 08:24:05;;;;;;;17.60;4.80;;;6.20;99.90;;;;;;5056765;28;20051;-77
2022/03/19 08:26:30;;;;;;;14.65;4.35;;;6.20;99.90;;;;;;5058777;28;20052;-79
2022/03/19 08:28:56;;;;;;;16.88;4.40;;;6.20;99.90;;;;;;5023984;28;20064;-79
2022/03/19 08:31:21;;;;;;;17.15;4.30;;;6.40;99.90;;;;;;5043254;28;20586;-79
2022/03/19 08:33:48;;;;;;;16.30;4.15;;;6.40;99.90;;;;;;5056427;28;20065;-81
2022/03/19 08:36:13;;;;;;;15.27;4.28;;;6.50;99.90;;;;;;5035096;28;20056;-81
2022/03/19 08:41:23;;;;;;;13.57;3.70;;;6.60;99.90;;;;;;5050735;28;20053;-80
2022/03/19 08:43:49;;;;;;;17.00;4.13;;;6.80;99.90;;;;;;5043272;28;20049;-76
2022/03/19 08:46:14;;;;;;;16.50;3.88;;;6.80;99.90;;;;;;5045081;28;20157;-78
2022/03/19 08:48:40;;;;;;;17.70;3.88;;;6.90;99.90;;;;;;5054312;28;20125;-78
2022/03/19 08:53:50;;;;;;;15.95;4.68;;;7.00;99.90;;;;;;5045305;28;20056;-79
2022/03/19 08:56:16;;;;;;;15.60;4.18;;;7.10;99.90;;;;;;5060215;28;20049;-78
2022/03/19 08:58:42;;;;;;;14.32;3.90;;;7.20;99.90;;;;;;5040929;28;20057;-79
2022/03/19 09:01:07;;;;;;;13.52;3.83;;;7.20;99.90;;;;;;5029725;28;20587;-78
2022/03/19 09:03:33;;;;;;;11.98;3.53;;;7.30;99.90;;;;;;5067090;28;20055;-79
2022/03/19 09:05:59;;;;;;;17.08;3.55;;;7.40;99.90;;;;;;5059350;28;20121;-79
2022/03/19 09:08:26;;;;;;;13.05;3.30;;;7.40;99.90;;;;;;5041792;28;20833;-78
2022/03/19 09:10:52;;;;;;;9.68;3.58;;;7.50;99.90;;;;;;5059842;28;20045;-79
2022/03/19 09:13:17;;;;;;;14.05;4.35;;;7.60;99.90;;;;;;5060788;28;20076;-79
2022/03/19 09:15:43;;;;;;;13.25;3.13;;;7.60;99.90;;;;;;5060630;28;20791;-78
2022/03/19 09:18:09;;;;;;;17.65;4.20;;;7.70;99.90;;;;;;5041651;28;20045;-79
2022/03/19 09:20:34;;;;;;;13.48;3.30;;;7.80;99.90;;;;;;5035201;28;20122;-79
2022/03/19 09:23:02;;;;;;;12.63;3.15;;;7.80;99.90;;;;;;5059026;28;20131;-78
2022/03/19 09:25:28;;;;;;;10.90;2.72;;;8.10;99.90;;;;;;5036665;28;20080;-79
2022/03/19 09:27:53;;;;;;;16.65;3.47;;;8.20;99.90;;;;;;5032238;28;20139;-79
2022/03/19 09:30:19;;;;;;;13.30;3.15;;;8.40;99.90;;;;;;5059807;28;20127;-79
2022/03/19 09:32:44;;;;;;;10.77;3.90;;;8.50;99.90;;;;;;5060322;28;20044;-79
2022/03/19 09:35:10;;;;;;;15.32;3.50;;;8.60;99.90;;;;;;5048494;28;20044;-79
2022/03/19 09:37:36;;;;;;;12.38;3.05;;;8.70;99.90;;;;;;5074296;28;20124;-78
2022/03/19 09:40:02;;;;;;;12.93;3.00;;;8.80;99.90;;;;;;5059941;28;20040;-79
2022/03/19 09:42:28;;;;;;;13.02;2.60;;;9.00;99.90;;;;;;5060294;28;20052;-79
2022/03/19 09:44:54;;;;;;;12.82;2.80;;;9.20;99.90;;;;;;5060192;28;20052;-78
2022/03/19 09:47:20;;;;;;;13.90;2.80;;;9.30;99.90;;;;;;5041320;28;20041;-78
2022/03/19 09:49:45;;;;;;;9.90;2.88;;;9.30;99.90;;;;;;5059483;28;20852;-79
2022/03/19 09:52:13;;;;;;;10.80;2.85;;;9.50;99.90;;;;;;5059541;28;20076;-79
2022/03/19 09:54:39;;;;;;;10.35;2.60;;;9.60;99.90;;;;;;5040983;28;20121;-79
2022/03/19 09:57:05;;;;;;;8.68;2.35;;;9.60;99.90;;;;;;5054162;28;20048;-80
2022/03/19 09:59:30;;;;;;;14.82;2.72;;;9.80;99.90;;;;;;5030395;28;20049;-80
2022/03/19 10:01:56;;;;;;;10.43;2.60;;;9.90;99.90;;;;;;5051251;28;20043;-80
2022/03/19 10:04:22;;;;;;;15.32;2.95;;;10.00;99.90;;;;;;5042823;28;20087;-82
2022/03/19 10:09:48;;;;;;;11.85;2.97;;;10.30;99.20;;;;;;5065644;28;20057;-81
2022/03/19 10:12:19;;;;;;;10.02;2.35;;;10.30;98.50;;;;;;5030668;28;20052;-81
2022/03/19 10:14:53;;;;;;;10.40;2.70;;;10.50;98.40;;;;;;5046562;28;20074;-79
2022/03/19 10:17:29;;;;;;;;;;;10.60;98.10;;;;;;5071406;28;20128;-79
2022/03/19 10:20:03;;;;;;;13.68;2.78;;;10.70;99.70;;;;;;5037352;28;19925;-80
2022/03/19 10:22:29;;;;;;;11.48;2.80;;;10.80;98.90;;;;;;5031689;28;20076;-80
2022/03/19 10:25:04;;;;;;;11.20;3.00;;;10.90;98.20;;;;;;5050345;28;20048;-79
2022/03/19 10:27:34;;;;;;;;;;;11.00;96.80;;;;;;5044342;28;20122;-79
2022/03/19 10:30:16;;;;;;;14.60;2.95;;;11.00;94.80;;;;;;5052039;28;20790;-81
2022/03/19 10:32:46;;;;;;;10.77;2.95;;;11.10;94.80;;;;;;5036970;28;20045;-79
2022/03/19 10:35:30;;;;;;;11.98;2.55;;;11.30;95.10;;;;;;5057061;28;20044;-79
2022/03/19 10:37:57;;;;;;;12.70;2.63;;;11.40;94.60;;;;;;5042470;28;20055;-80
2022/03/19 10:40:39;;;;;;;11.02;2.33;;;11.50;95.40;;;;;;5052765;28;20059;-79
2022/03/19 10:43:07;;;;;;;10.75;2.80;;;11.60;90.30;;;;;;5044574;28;20061;-80
2022/03/19 10:45:33;;;;;;;8.50;2.10;;;11.60;91.80;;;;;;5034959;28;20049;-80
2022/03/19 10:48:02;;;;;;;11.20;3.17;;;11.70;93.40;;;;;;5051741;28;20410;-80
2022/03/19 10:50:27;;;;;;;6.57;2.00;;;11.80;91.90;;;;;;5049437;28;20057;-80
2022/03/19 10:52:56;;;;;;;9.40;2.20;;;11.90;89.30;;;;;;5054760;28;20040;-80
2022/03/19 10:55:21;;;;;;;10.05;2.92;;;12.00;91.00;;;;;;5044600;28;20069;-80
2022/03/19 10:57:47;;;;;;;10.05;2.90;;;12.10;91.30;;;;;;5043820;28;20436;-80
2022/03/19 11:00:14;;;;;;;10.38;2.70;;;12.30;85.10;;;;;;5044111;28;20487;-80
2022/03/19 11:02:45;;;;;;;6.97;2.15;;;12.30;81.60;;;;;;5018667;28;20041;-80
2022/03/19 11:05:12;;;;;;;8.25;1.80;;;12.40;78.30;;;;;;5051410;28;20078;-79
2022/03/19 11:07:42;;;;;;;9.13;2.42;;;12.50;81.00;;;;;;5032486;28;20063;-78
2022/03/19 11:10:09;;;;;;;9.90;2.30;;;12.60;85.30;;;;;;5047848;28;20656;-80
2022/03/19 11:12:35;;;;;;;8.27;1.75;;;12.70;85.40;;;;;;5047175;28;20056;-81
2022/03/19 11:15:04;;;;;;;7.97;1.90;;;12.70;83.60;;;;;;5031563;28;20057;-81
2022/03/19 11:17:32;;;;;;;10.30;2.30;;;12.80;80.80;;;;;;5040708;28;20076;-80
2022/03/19 11:20:00;;;;;;;9.05;1.92;;;13.00;78.30;;;;;;5034270;28;20048;-81
2022/03/19 11:22:30;;;;;;;8.68;1.85;;;13.10;78.80;;;;;;5030210;28;20782;-81
2022/03/19 11:25:03;;;;;;;6.10;1.95;;;13.20;75.90;;;;;;5046192;28;20109;-80
2022/03/19 11:27:32;;;;;;;7.05;1.83;;;13.30;73.80;;;;;;5050150;28;20049;-80
2022/03/19 11:29:59;;;;;;;6.15;1.73;;;13.30;74.60;;;;;;5045023;28;20053;-82
2022/03/19 11:32:25;;;;;;;8.77;1.90;;;13.30;72.00;;;;;;5023883;28;20048;-83
2022/03/19 11:34:56;;;;;;;4.82;1.30;;;13.40;73.30;;;;;;5053831;28;20048;-84
2022/03/19 11:37:22;;;;;;;7.95;1.65;;;13.50;71.90;;;;;;5040348;28;20045;-85
2022/03/19 11:40:28;;;;;;;7.05;1.80;;;13.60;70.20;;;;;;5071308;28;20603;-84
2022/03/19 11:42:54;;;;;;;8.13;1.50;;;13.60;71.40;;;;;;5037872;28;20056;-80
2022/03/19 11:45:20;;;;;;;6.18;1.38;;;13.60;69.20;;;;;;5052765;28;20079;-84
2022/03/19 11:47:46;;;;;;;8.07;1.73;;;13.60;68.70;;;;;;5050583;28;20568;-81
2022/03/19 11:50:20;;;;;;;6.32;1.65;;;13.70;71.00;;;;;;5057417;28;20499;-80
2022/03/19 11:52:46;;;;;;;6.40;1.67;;;13.70;71.60;;;;;;5048994;28;20648;-84
2022/03/19 11:55:16;;;;;;;6.47;1.90;;;13.80;72.00;;;;;;5043014;28;20049;-81
2022/03/19 11:58:02;;;;;;;7.00;1.52;;;13.80;73.00;;;;;;5039554;28;20155;-81
2022/03/19 12:00:32;;;;;;;8.65;1.83;;;14.00;74.00;;;;;;5046945;28;20122;-81
2022/03/19 12:03:18;;;;;;;7.50;1.60;;;14.10;74.80;;;;;;5021248;28;20065;-82
2022/03/19 12:05:51;;;;;;;7.53;1.33;;;14.20;72.10;;;;;;5060824;28;20052;-81
2022/03/19 12:08:29;;;;;;;5.57;1.40;;;14.20;68.80;;;;;;5052975;28;20092;-81
2022/03/19 12:11:03;;;;;;;3.88;1.05;;;14.20;64.80;;;;;;5039320;28;20059;-81
2022/03/19 12:13:28;;;;;;;3.45;0.70;;;14.20;65.60;;;;;;5047669;28;20049;-81
2022/03/19 12:15:59;;;;;;;4.93;1.02;;;14.30;62.70;;;;;;5060054;28;20109;-81
2022/03/19 12:18:29;;;;;;;4.45;0.93;;;14.30;61.40;;;;;;5048250;28;20383;-81
2022/03/19 12:21:17;;;;;;;3.58;1.13;;;14.50;62.30;;;;;;5051218;28;20057;-82
2022/03/19 12:24:02;;;;;;;2.60;0.90;;;14.30;61.90;;;;;;5040343;28;20052;-81
2022/03/19 12:26:36;;;;;;;4.38;1.02;;;14.30;62.00;;;;;;5038397;28;20135;-81
2022/03/19 12:29:04;;;;;;;4.07;1.08;;;14.30;61.70;;;;;;5031573;28;20044;-81
2022/03/19 12:31:32;;;;;;;3.40;1.00;;;14.40;61.80;;;;;;5079307;28;20870;-81
2022/03/19 12:33:58;;;;;;;4.63;1.13;;;14.40;63.00;;;;;;5060242;28;20045;-81
2022/03/19 12:36:24;;;;;;;4.05;1.02;;;14.50;63.30;;;;;;5051214;28;20040;-83
2022/03/19 12:38:52;;;;;;;4.30;1.30;;;14.50;62.60;;;;;;5032625;28;20051;-78
2022/03/19 12:41:31;;;;;;;4.50;1.00;;;14.50;60.90;;;;;;5040233;28;20570;-75
2022/03/19 12:44:02;;;;;;;5.80;1.00;;;14.60;60.60;;;;;;5047966;28;20057;-76
2022/03/19 12:46:30;;;;;;;3.90;0.98;;;14.60;60.20;;;;;;5047836;28;20460;-75
2022/03/19 12:49:17;;;;;;;4.03;0.85;;;14.60;59.30;;;;;;5056973;28;20052;-74
2022/03/19 12:51:49;;;;;;;4.88;0.90;;;14.60;59.80;;;;;;5052700;28;20051;-74
2022/03/19 12:54:17;;;;;;;3.22;0.80;;;14.60;60.10;;;;;;5049489;28;20122;-73
2022/03/19 12:56:43;;;;;;;4.97;1.13;;;14.70;59.80;;;;;;5047710;28;20484;-74
2022/03/19 12:59:17;;;;;;;6.93;1.30;;;14.80;61.50;;;;;;5027739;28;20073;-76
2022/03/19 13:01:43;;;;;;;;;;;14.70;59.80;;;;;;5012548;28;20051;-74
2022/03/19 13:04:08;;;;;;;7.47;1.13;;;14.70;59.30;;;;;;5036840;28;19924;-74
2022/03/19 13:06:41;;;;;;;4.65;0.95;;;14.80;60.30;;;;;;5042453;28;20078;-76
2022/03/19 13:09:08;;;;;;;5.15;1.08;;;14.80;60.20;;;;;;5042598;28;20837;-75